Time;durP1;ratioP1;P1;durP2;ratioP2;P2;SDS_P1;SDS_P2;PMS_P1;PMS_P2;Temp;Humidity;BMP_temperature;BMP_pressure;BME280_temperature;BME280_humidity;BME280_pressure;Samples;Min_cycle;Max_cycle;Signal;HPM_P1;HPM_P2
2022/01/15 00:00:43;;;;;;;27.73;12.75;;;5.30;97.00;;;;;;2079648;28;20077;-88
2022/01/15 00:01:44;;;;;;;28.38;12.50;;;5.30;97.00;;;;;;2073301;28;20034;-88
2022/01/15 00:02:45;;;;;;;28.92;12.90;;;5.30;97.00;;;;;;2072960;28;20451;-88
2022/01/15 00:03:46;;;;;;;29.95;13.50;;;5.30;97.00;;;;;;2081207;28;20048;-88
2022/01/15 00:04:47;;;;;;;29.55;12.60;;;5.30;97.00;;;;;;2080292;28;20492;-88
2022/01/15 00:05:47;;;;;;;30.35;13.15;;;5.30;97.00;;;;;;2070939;28;20034;-87
2022/01/15 00:06:48;;;;;;;28.80;12.77;;;5.30;97.00;;;;;;2072712;28;20048;-88
2022/01/15 00:07:49;;;;;;;27.63;12.13;;;5.30;97.00;;;;;;2082123;28;20037;-86
2022/01/15 00:08:50;;;;;;;31.02;13.35;;;5.30;97.00;;;;;;2080847;28;20029;-87
2022/01/15 00:09:51;;;;;;;30.67;12.82;;;5.30;97.00;;;;;;2073013;28;20042;-88
2022/01/15 00:10:51;;;;;;;32.92;13.32;;;5.30;97.00;;;;;;2081101;28;20072;-88
2022/01/15 00:11:53;;;;;;;30.77;12.70;;;5.30;97.00;;;;;;2074288;28;20037;-88
2022/01/15 00:13:01;;;;;;;31.13;13.27;;;5.30;97.00;;;;;;2088157;28;20037;-87
2022/01/15 00:14:23;;;;;;;32.17;13.48;;;5.20;97.00;;;;;;2079925;28;20037;-88
2022/01/15 00:15:37;;;;;;;30.88;13.25;;;5.30;97.00;;;;;;2080062;28;20510;-88
2022/01/15 00:16:46;;;;;;;29.08;12.68;;;5.20;97.00;;;;;;2073065;28;20042;-88
2022/01/15 00:19:02;;;;;;;30.50;12.60;;;5.20;97.00;;;;;;2085258;28;20029;-88
2022/01/15 00:20:05;;;;;;;31.58;12.32;;;5.20;97.00;;;;;;2089213;28;20475;-88
2022/01/15 00:21:07;;;;;;;30.95;12.63;;;5.20;97.00;;;;;;2083027;28;20037;-88
2022/01/15 00:22:10;;;;;;;31.73;12.30;;;5.20;97.10;;;;;;2083307;28;20048;-88
2022/01/15 00:23:10;;;;;;;27.80;12.15;;;5.20;97.10;;;;;;2090405;28;20086;-87
2022/01/15 00:24:11;;;;;;;30.88;12.52;;;5.20;97.10;;;;;;2081784;28;20049;-88
2022/01/15 00:25:13;;;;;;;32.08;12.23;;;5.20;97.10;;;;;;2069879;28;20531;-88
2022/01/15 00:26:13;;;;;;;29.75;12.48;;;5.20;97.10;;;;;;2072306;28;20487;-88
2022/01/15 00:27:15;;;;;;;33.97;12.50;;;5.20;97.10;;;;;;2089219;28;20041;-88
2022/01/15 00:28:15;;;;;;;28.42;11.73;;;5.20;97.10;;;;;;2072385;28;20033;-87
2022/01/15 00:29:16;;;;;;;31.67;12.63;;;5.20;97.10;;;;;;2064854;28;20544;-88
2022/01/15 00:30:18;;;;;;;32.20;13.00;;;5.20;97.10;;;;;;2056586;28;20035;-88
2022/01/15 00:31:19;;;;;;;31.95;13.35;;;5.10;97.10;;;;;;2065013;28;20058;-88
2022/01/15 00:32:20;;;;;;;31.02;13.07;;;5.20;97.10;;;;;;2086504;28;20136;-87
2022/01/15 00:33:20;;;;;;;29.60;11.80;;;5.20;97.10;;;;;;2080056;28;20045;-87
2022/01/15 00:34:21;;;;;;;33.40;13.02;;;5.20;97.10;;;;;;2070893;28;20045;-88
2022/01/15 00:35:23;;;;;;;32.38;12.82;;;5.20;97.10;;;;;;2080062;28;20065;-88
2022/01/15 00:36:24;;;;;;;29.23;12.43;;;5.10;97.10;;;;;;2087495;28;20524;-88
2022/01/15 00:37:25;;;;;;;29.08;12.32;;;5.10;97.10;;;;;;2080974;28;20045;-87
2022/01/15 00:38:26;;;;;;;29.42;12.23;;;5.10;97.10;;;;;;2080947;28;20033;-87
2022/01/15 00:39:27;;;;;;;32.22;12.55;;;5.10;97.40;;;;;;2087691;28;20029;-88
2022/01/15 00:40:27;;;;;;;27.65;11.02;;;5.20;97.10;;;;;;2081632;28;20092;-87
2022/01/15 00:41:28;;;;;;;26.10;11.13;;;5.10;97.10;;;;;;2075035;28;20573;-88
2022/01/15 00:42:30;;;;;;;27.80;11.75;;;5.10;97.10;;;;;;2076632;28;20042;-88
2022/01/15 00:43:30;;;;;;;30.83;12.20;;;5.10;97.10;;;;;;2081904;28;20037;-88
2022/01/15 00:44:31;;;;;;;29.70;12.30;;;5.20;97.20;;;;;;2080997;28;20038;-88
2022/01/15 00:45:33;;;;;;;29.23;11.48;;;5.20;97.20;;;;;;2075865;28;20030;-87
2022/01/15 00:46:34;;;;;;;32.25;12.80;;;5.10;97.10;;;;;;2080802;28;20048;-87
2022/01/15 00:47:35;;;;;;;29.20;11.88;;;5.20;97.20;;;;;;2073415;28;20121;-88
2022/01/15 00:48:35;;;;;;;31.75;12.65;;;5.20;97.40;;;;;;2073314;28;20060;-87
2022/01/15 00:49:36;;;;;;;25.83;11.15;;;5.10;97.40;;;;;;2089385;28;20044;-88
2022/01/15 00:50:37;;;;;;;28.73;12.07;;;5.20;97.20;;;;;;2083560;28;20085;-88
2022/01/15 00:51:38;;;;;;;33.05;13.10;;;5.10;97.10;;;;;;2077389;28;20040;-88
2022/01/15 00:52:39;;;;;;;29.75;12.07;;;5.10;97.10;;;;;;2088859;28;20503;-87
2022/01/15 00:53:39;;;;;;;32.67;12.93;;;5.10;97.10;;;;;;2080645;28;20034;-88
2022/01/15 00:54:41;;;;;;;32.13;12.70;;;5.10;97.10;;;;;;2079226;28;20038;-88
2022/01/15 00:55:42;;;;;;;33.33;12.63;;;5.10;97.10;;;;;;2079045;28;20555;-88
2022/01/15 00:56:42;;;;;;;29.85;11.45;;;5.10;97.10;;;;;;2075445;28;20082;-87
2022/01/15 00:57:43;;;;;;;28.95;11.98;;;5.10;97.10;;;;;;2082568;28;20045;-88
2022/01/15 00:58:43;;;;;;;29.10;11.55;;;5.10;97.10;;;;;;2081061;28;20033;-88
2022/01/15 00:59:44;;;;;;;35.47;12.60;;;5.10;97.10;;;;;;2080645;28;20461;-87
2022/01/15 01:00:45;;;;;;;31.35;12.65;;;5.10;97.10;;;;;;2072733;28;20034;-88
2022/01/15 01:01:45;;;;;;;28.73;11.68;;;5.10;97.10;;;;;;2076542;28;20175;-88
2022/01/15 01:02:47;;;;;;;28.33;12.00;;;5.10;97.10;;;;;;2086672;28;20514;-87
2022/01/15 01:03:49;;;;;;;28.10;11.65;;;5.10;97.10;;;;;;2089922;28;20036;-88
2022/01/15 01:04:49;;;;;;;26.95;12.20;;;5.10;97.10;;;;;;2089621;28;20036;-88
2022/01/15 01:05:50;;;;;;;28.92;11.93;;;5.10;97.10;;;;;;2080954;28;20503;-88
2022/01/15 01:06:51;;;;;;;29.05;12.40;;;5.10;97.10;;;;;;2072315;28;20070;-88
2022/01/15 01:07:51;;;;;;;30.95;12.43;;;5.10;97.20;;;;;;2078592;28;20554;-88
2022/01/15 01:08:52;;;;;;;31.27;12.27;;;5.10;97.10;;;;;;2089138;28;20482;-87
2022/01/15 01:10:14;;;;;;;28.77;11.52;;;5.10;97.10;;;;;;2078086;28;20033;-88
2022/01/15 01:11:18;;;;;;;29.10;12.07;;;5.10;97.40;;;;;;2082924;28;20033;-88
2022/01/15 01:23:24;;;;;;;29.38;11.20;;;5.00;97.10;;;;;;2087572;28;20090;-88
2022/01/15 01:24:26;;;;;;;29.48;11.30;;;5.00;97.10;;;;;;2081131;28;20483;-88
2022/01/15 01:25:34;;;;;;;27.52;11.57;;;4.90;97.10;;;;;;2083406;28;20033;-87
2022/01/15 01:26:49;;;;;;;26.33;10.75;;;4.90;97.10;;;;;;2082825;28;20040;-87
2022/01/15 01:27:54;;;;;;;26.75;10.85;;;4.90;97.10;;;;;;2074114;28;20034;-87
2022/01/15 01:29:11;;;;;;;30.27;12.07;;;4.90;97.10;;;;;;2074655;28;20571;-87
2022/01/15 01:30:20;;;;;;;27.20;11.63;;;4.90;97.10;;;;;;2084897;28;20040;-88
2022/01/15 01:31:29;;;;;;;28.02;10.82;;;4.90;97.10;;;;;;2075797;28;20427;-88
2022/01/15 01:33:41;;;;;;;28.40;10.55;;;4.90;97.10;;;;;;2076230;28;20400;-88
2022/01/15 01:34:44;;;;;;;25.95;10.68;;;4.90;97.10;;;;;;2079423;28;20364;-87
2022/01/15 01:35:49;;;;;;;27.92;10.90;;;4.90;97.10;;;;;;2082340;28;20041;-87
2022/01/15 01:37:10;;;;;;;26.80;11.30;;;4.90;97.10;;;;;;2082339;28;20030;-87
2022/01/15 01:38:23;;;;;;;23.63;9.50;;;4.90;97.40;;;;;;2086034;28;20424;-88
2022/01/15 01:39:32;;;;;;;26.83;9.95;;;4.90;97.20;;;;;;2075543;28;20038;-88
2022/01/15 01:40:39;;;;;;;27.13;10.32;;;4.90;97.20;;;;;;2085312;28;20045;-88
2022/01/15 01:41:47;;;;;;;28.40;10.93;;;4.90;97.20;;;;;;2085208;28;20474;-87
2022/01/15 01:43:01;;;;;;;27.42;11.20;;;4.90;97.20;;;;;;2091484;28;20040;-87
2022/01/15 01:44:04;;;;;;;26.55;10.95;;;4.90;97.10;;;;;;2100211;28;20037;-87
2022/01/15 01:45:11;;;;;;;27.73;10.15;;;4.90;97.20;;;;;;2095175;28;20046;-87
2022/01/15 01:46:18;;;;;;;31.00;11.40;;;4.90;97.20;;;;;;2081407;28;20026;-87
2022/01/15 01:47:28;;;;;;;26.50;10.43;;;4.90;97.20;;;;;;2094888;28;20024;-88
2022/01/15 01:48:29;;;;;;;27.52;10.88;;;4.90;97.10;;;;;;2095673;28;20087;-86
2022/01/15 01:49:29;;;;;;;30.23;10.80;;;4.90;97.10;;;;;;2079674;28;20634;-88
2022/01/15 01:50:30;;;;;;;28.98;11.07;;;4.90;97.10;;;;;;2081190;28;20532;-87
2022/01/15 01:51:34;;;;;;;28.40;10.80;;;4.90;97.10;;;;;;2092163;28;20047;-88
2022/01/15 01:52:36;;;;;;;30.00;10.15;;;4.90;97.10;;;;;;2086180;28;20025;-88
2022/01/15 01:53:38;;;;;;;26.00;10.38;;;4.90;97.20;;;;;;2082025;28;20495;-88
2022/01/15 01:54:39;;;;;;;25.38;9.38;;;4.90;97.20;;;;;;2090358;28;20487;-88
2022/01/15 01:55:40;;;;;;;26.58;9.93;;;4.90;97.20;;;;;;2089099;28;20068;-89
2022/01/15 01:56:40;;;;;;;26.35;9.65;;;4.90;97.20;;;;;;2065590;28;20504;-87
2022/01/15 01:57:42;;;;;;;24.27;9.32;;;4.80;97.20;;;;;;2065276;28;20050;-87
2022/01/15 01:58:43;;;;;;;26.92;10.13;;;4.90;97.20;;;;;;2065385;28;20039;-88
2022/01/15 01:59:43;;;;;;;27.50;10.15;;;4.80;97.20;;;;;;2074046;28;20029;-88
2022/01/15 02:00:44;;;;;;;24.00;9.52;;;4.80;97.10;;;;;;2091912;28;20029;-88
2022/01/15 02:01:45;;;;;;;25.35;9.95;;;4.90;97.20;;;;;;2078347;28;20048;-88
2022/01/15 02:02:47;;;;;;;25.17;9.80;;;4.90;97.20;;;;;;2087055;28;20056;-88
2022/01/15 02:03:47;;;;;;;27.05;9.30;;;4.80;97.20;;;;;;2090273;28;20124;-88
2022/01/15 02:04:48;;;;;;;25.90;9.70;;;4.90;97.20;;;;;;2082562;28;20033;-88
2022/01/15 02:05:49;;;;;;;26.80;10.27;;;4.80;97.10;;;;;;2066210;28;20046;-87
2022/01/15 02:06:50;;;;;;;25.83;9.85;;;4.80;97.10;;;;;;2066097;28;20532;-88
2022/01/15 02:07:51;;;;;;;28.00;10.10;;;4.80;97.10;;;;;;2073912;28;20038;-87
2022/01/15 02:08:54;;;;;;;24.80;9.73;;;4.80;97.20;;;;;;2065877;28;20053;-88
2022/01/15 02:09:57;;;;;;;22.30;9.25;;;4.80;97.20;;;;;;2074961;28;20089;-88
2022/01/15 02:10:58;;;;;;;22.75;9.52;;;4.80;97.20;;;;;;2088442;28;20375;-87
2022/01/15 02:11:58;;;;;;;24.42;8.73;;;4.80;97.20;;;;;;2082072;28;20069;-88
2022/01/15 02:13:00;;;;;;;23.05;8.85;;;4.80;97.20;;;;;;2081996;28;20041;-88
2022/01/15 02:14:01;;;;;;;23.40;9.27;;;4.80;97.20;;;;;;2086514;28;20411;-88
2022/01/15 02:15:12;;;;;;;24.60;9.07;;;4.80;97.20;;;;;;2065599;28;20034;-88
2022/01/15 02:16:14;;;;;;;23.88;8.45;;;4.80;97.20;;;;;;2073541;28;20038;-88
2022/01/15 02:17:19;;;;;;;23.25;8.65;;;4.80;97.20;;;;;;2090021;28;20040;-88
2022/01/15 02:18:19;;;;;;;22.58;9.05;;;4.80;97.20;;;;;;2089351;28;20033;-88
2022/01/15 02:19:20;;;;;;;22.23;9.20;;;4.80;97.20;;;;;;2090742;28;20110;-88
2022/01/15 02:24:02;;;;;;;24.25;9.13;;;4.80;97.20;;;;;;2074106;28;20254;-87
2022/01/15 02:25:02;;;;;;;23.48;9.05;;;4.80;97.20;;;;;;2076332;28;20105;-88
2022/01/15 02:26:08;;;;;;;25.50;9.35;;;4.80;97.10;;;;;;2081892;28;20045;-88
2022/01/15 02:27:08;;;;;;;23.73;9.40;;;4.80;97.10;;;;;;2082225;28;20113;-88
2022/01/15 02:28:10;;;;;;;25.05;9.82;;;4.70;97.10;;;;;;2075295;28;20111;-88
2022/01/15 02:29:12;;;;;;;24.67;9.68;;;4.70;97.10;;;;;;2073779;28;20026;-88
2022/01/15 02:30:13;;;;;;;21.95;8.95;;;4.70;97.10;;;;;;2081861;28;20514;-88
2022/01/15 02:31:16;;;;;;;21.52;8.88;;;4.70;97.20;;;;;;2088670;28;20173;-87
2022/01/15 02:32:17;;;;;;;22.98;9.00;;;4.70;97.20;;;;;;2083042;28;20399;-88
2022/01/15 02:33:17;;;;;;;25.30;9.90;;;4.70;97.20;;;;;;2082629;28;20073;-88
2022/01/15 02:34:18;;;;;;;25.40;9.95;;;4.70;97.20;;;;;;2089834;28;20037;-88
2022/01/15 02:35:19;;;;;;;23.27;9.40;;;4.70;97.10;;;;;;2089819;28;20087;-88
2022/01/15 02:36:23;;;;;;;22.48;8.60;;;4.70;97.20;;;;;;2081694;28;20128;-88
2022/01/15 02:37:23;;;;;;;24.55;9.40;;;4.70;97.20;;;;;;2088303;28;20028;-88
2022/01/15 02:38:24;;;;;;;24.90;9.65;;;4.70;97.20;;;;;;2084326;28;20113;-87
2022/01/15 02:39:25;;;;;;;21.95;8.85;;;4.70;97.20;;;;;;2081615;28;20030;-88
2022/01/15 02:40:26;;;;;;;23.08;8.75;;;4.70;97.20;;;;;;2081380;28;20048;-88
2022/01/15 02:41:35;;;;;;;22.00;8.60;;;4.60;97.30;;;;;;2082380;28;20501;-87
2022/01/15 02:42:36;;;;;;;22.70;8.95;;;4.70;97.20;;;;;;2085879;28;20029;-87
2022/01/15 02:43:37;;;;;;;23.65;8.68;;;4.60;97.20;;;;;;2069039;28;20042;-88
2022/01/15 02:44:38;;;;;;;21.85;9.05;;;4.60;97.20;;;;;;2073538;28;20064;-87
2022/01/15 02:45:43;;;;;;;23.65;8.95;;;4.60;97.10;;;;;;2096762;28;20033;-88
2022/01/15 02:48:02;;;;;;;23.05;8.60;;;4.60;97.10;;;;;;2088853;28;20045;-88
2022/01/15 02:49:06;;;;;;;22.45;8.05;;;4.60;97.20;;;;;;2081691;28;20053;-88
2022/01/15 02:50:08;;;;;;;18.85;7.32;;;4.60;97.20;;;;;;2075202;28;20412;-88
2022/01/15 02:51:08;;;;;;;20.63;7.78;;;4.60;97.20;;;;;;2081541;28;20488;-87
2022/01/15 02:52:09;;;;;;;18.75;7.18;;;4.60;97.20;;;;;;2081673;28;20116;-88
2022/01/15 02:53:11;;;;;;;23.55;8.75;;;4.60;97.20;;;;;;2080563;28;20033;-88
2022/01/15 02:54:12;;;;;;;19.58;7.57;;;4.60;97.20;;;;;;2088965;28;20075;-88
2022/01/15 02:55:12;;;;;;;19.15;7.45;;;4.60;97.20;;;;;;2073581;28;20100;-88
2022/01/15 02:56:13;;;;;;;19.80;8.45;;;4.60;97.20;;;;;;2074047;28;20038;-88
2022/01/15 02:57:13;;;;;;;19.83;8.15;;;4.50;97.20;;;;;;2081586;28;20123;-87
2022/01/15 02:58:15;;;;;;;18.83;7.72;;;4.50;97.20;;;;;;2089124;28;20087;-88
2022/01/15 02:59:18;;;;;;;18.35;7.55;;;4.50;97.20;;;;;;2097391;28;20037;-88
2022/01/15 03:00:20;;;;;;;18.50;7.28;;;4.50;97.20;;;;;;2096813;28;20016;-88
2022/01/15 03:01:22;;;;;;;17.95;7.47;;;4.50;97.20;;;;;;2081550;28;20480;-88
2022/01/15 03:02:23;;;;;;;20.73;7.68;;;4.60;97.20;;;;;;2066452;28;20042;-88
2022/01/15 03:03:23;;;;;;;19.05;7.53;;;4.60;97.20;;;;;;2070676;28;20038;-88
2022/01/15 03:04:24;;;;;;;17.67;7.32;;;4.50;97.20;;;;;;2090106;28;20037;-87
2022/01/15 03:05:25;;;;;;;20.27;7.75;;;4.60;97.20;;;;;;2088155;28;20120;-88
2022/01/15 03:06:25;;;;;;;17.35;7.00;;;4.60;97.20;;;;;;2090441;28;20064;-88
2022/01/15 03:07:26;;;;;;;19.02;7.22;;;4.60;97.20;;;;;;2088045;28;20030;-88
2022/01/15 03:08:27;;;;;;;16.25;6.85;;;4.60;97.20;;;;;;2076954;28;20049;-88
2022/01/15 03:09:27;;;;;;;16.85;7.00;;;4.60;97.20;;;;;;2072976;28;20027;-88
2022/01/15 03:10:28;;;;;;;18.05;7.43;;;4.60;97.20;;;;;;2078108;28;20069;-87
2022/01/15 03:11:29;;;;;;;17.35;6.90;;;4.60;97.20;;;;;;2088595;28;20056;-88
2022/01/15 03:12:29;;;;;;;16.92;6.75;;;4.60;97.20;;;;;;2085434;28;20105;-88
2022/01/15 03:13:30;;;;;;;15.93;6.15;;;4.60;97.20;;;;;;2078886;28;20037;-88
2022/01/15 03:14:31;;;;;;;19.58;7.30;;;4.60;97.20;;;;;;2066400;28;20508;-88
2022/01/15 03:15:32;;;;;;;17.33;6.85;;;4.60;97.20;;;;;;2077019;28;20048;-88
2022/01/15 03:16:32;;;;;;;16.92;6.82;;;4.60;97.20;;;;;;2065079;28;20535;-88
2022/01/15 03:17:33;;;;;;;17.15;7.03;;;4.60;97.20;;;;;;2065271;28;20051;-87
2022/01/15 03:18:34;;;;;;;17.85;7.15;;;4.60;97.20;;;;;;2082275;28;20041;-88
2022/01/15 03:19:35;;;;;;;16.60;7.05;;;4.60;97.20;;;;;;2073366;28;20026;-87
2022/01/15 03:20:36;;;;;;;18.45;7.28;;;4.60;97.20;;;;;;2073344;28;20048;-88
2022/01/15 03:21:36;;;;;;;18.75;7.47;;;4.60;97.20;;;;;;2090251;28;20201;-87
2022/01/15 03:22:37;;;;;;;17.15;6.90;;;4.60;97.20;;;;;;2086605;28;20041;-87
2022/01/15 03:23:38;;;;;;;19.58;7.65;;;4.60;97.40;;;;;;2080640;28;20037;-87
2022/01/15 03:24:39;;;;;;;18.55;7.30;;;4.60;97.20;;;;;;2081548;28;20137;-87
2022/01/15 03:25:40;;;;;;;17.42;7.03;;;4.60;97.20;;;;;;2087303;28;20159;-88
2022/01/15 03:26:40;;;;;;;17.05;7.32;;;4.60;97.20;;;;;;2083984;28;20038;-88
2022/01/15 03:27:41;;;;;;;16.95;7.28;;;4.60;97.20;;;;;;2073155;28;20072;-88
2022/01/15 03:28:43;;;;;;;16.23;7.03;;;4.60;97.20;;;;;;2081573;28;20044;-87
2022/01/15 03:29:44;;;;;;;16.60;6.72;;;4.60;97.20;;;;;;2077033;28;20076;-88
2022/01/15 03:30:44;;;;;;;19.25;7.43;;;4.60;97.20;;;;;;2087088;28;20044;-88
2022/01/15 03:31:45;;;;;;;18.40;6.63;;;4.60;97.30;;;;;;2087682;28;20064;-87
2022/01/15 03:32:46;;;;;;;17.10;7.20;;;4.60;97.50;;;;;;2081256;28;20517;-87
2022/01/15 03:33:46;;;;;;;15.35;6.68;;;4.60;97.30;;;;;;2096798;28;20029;-88
2022/01/15 03:34:48;;;;;;;17.35;6.75;;;4.60;97.20;;;;;;2082184;28;20068;-87
2022/01/15 03:35:49;;;;;;;18.75;7.25;;;4.60;97.20;;;;;;2072950;28;20030;-88
2022/01/15 03:36:49;;;;;;;20.63;7.50;;;4.60;97.20;;;;;;2073173;28;20073;-88
2022/01/15 03:37:50;;;;;;;19.88;7.20;;;4.60;97.20;;;;;;2073266;28;20056;-88
2022/01/15 03:38:51;;;;;;;19.90;7.47;;;4.60;97.20;;;;;;2069864;28;20072;-88
2022/01/15 03:39:52;;;;;;;18.88;7.53;;;4.50;97.20;;;;;;2081423;28;20519;-88
2022/01/15 03:40:54;;;;;;;18.67;7.63;;;4.50;97.20;;;;;;2089622;28;20037;-88
2022/01/15 03:41:54;;;;;;;17.08;7.40;;;4.50;97.20;;;;;;2078125;28;20504;-88
2022/01/15 03:42:55;;;;;;;18.65;7.75;;;4.50;97.20;;;;;;2084778;28;20083;-88
2022/01/15 03:43:56;;;;;;;20.25;8.05;;;4.50;97.20;;;;;;2091802;28;20060;-88
2022/01/15 03:44:56;;;;;;;19.52;8.93;;;4.50;97.20;;;;;;2065013;28;20042;-88
2022/01/15 03:45:57;;;;;;;19.85;8.30;;;4.50;97.20;;;;;;2073203;28;20177;-87
2022/01/15 03:46:58;;;;;;;20.75;8.63;;;4.50;97.20;;;;;;2090197;28;20211;-88
2022/01/15 03:47:58;;;;;;;17.90;8.52;;;4.50;97.20;;;;;;2081286;28;20068;-88
2022/01/15 03:48:59;;;;;;;20.35;8.80;;;4.50;97.20;;;;;;2085920;28;20049;-88
2022/01/15 03:50:00;;;;;;;20.08;9.40;;;4.50;97.20;;;;;;2082623;28;20519;-87
2022/01/15 03:51:00;;;;;;;20.08;9.68;;;4.50;97.20;;;;;;2081237;28;20073;-88
2022/01/15 03:52:01;;;;;;;20.88;9.95;;;4.40;97.20;;;;;;2080786;28;20048;-87
2022/01/15 03:53:02;;;;;;;19.90;9.93;;;4.50;97.20;;;;;;2089359;28;20064;-87
2022/01/15 03:54:03;;;;;;;20.67;11.23;;;4.40;97.20;;;;;;2088170;28;20037;-87
2022/01/15 03:55:06;;;;;;;21.90;11.77;;;4.50;97.20;;;;;;2080829;28;20049;-88
2022/01/15 03:56:07;;;;;;;21.65;11.68;;;4.40;97.20;;;;;;2080046;28;20038;-87
2022/01/15 03:57:07;;;;;;;20.52;11.43;;;4.50;97.30;;;;;;2081820;28;20041;-88
2022/01/15 03:58:08;;;;;;;19.58;10.57;;;4.40;97.20;;;;;;2081659;28;20463;-88
2022/01/15 03:59:09;;;;;;;23.55;12.27;;;4.50;97.30;;;;;;2081779;28;20068;-88
2022/01/15 04:00:13;;;;;;;22.13;12.32;;;4.50;97.20;;;;;;2073225;28;20519;-88
2022/01/15 04:01:14;;;;;;;21.88;12.27;;;4.40;97.20;;;;;;2073801;28;20037;-87
2022/01/15 04:02:15;;;;;;;23.88;12.45;;;4.50;97.20;;;;;;2072835;28;20042;-88
2022/01/15 04:03:17;;;;;;;22.52;12.98;;;4.40;97.20;;;;;;2072275;28;20445;-87
2022/01/15 04:04:18;;;;;;;23.05;12.95;;;4.40;97.20;;;;;;2081432;28;20037;-88
2022/01/15 04:05:19;;;;;;;22.30;12.63;;;4.40;97.20;;;;;;2081805;28;20076;-88
2022/01/15 04:06:20;;;;;;;20.35;12.07;;;4.40;97.20;;;;;;2076453;28;20044;-88
2022/01/15 04:07:20;;;;;;;21.45;11.88;;;4.40;97.20;;;;;;2081146;28;20033;-88
2022/01/15 04:08:21;;;;;;;18.38;10.77;;;4.40;97.20;;;;;;2089130;28;20088;-88
2022/01/15 04:09:22;;;;;;;19.40;11.02;;;4.40;97.20;;;;;;2090027;28;20037;-87
2022/01/15 04:10:23;;;;;;;18.67;10.35;;;4.40;97.20;;;;;;2076473;28;20571;-88
2022/01/15 04:11:23;;;;;;;22.30;10.52;;;4.40;97.20;;;;;;2080982;28;20037;-87
2022/01/15 04:12:24;;;;;;;16.13;8.82;;;4.40;97.20;;;;;;2092019;28;20041;-88
2022/01/15 04:13:24;;;;;;;16.58;8.70;;;4.40;97.20;;;;;;2073073;28;20061;-88
2022/01/15 04:14:25;;;;;;;15.55;8.50;;;4.40;97.20;;;;;;2066238;28;20469;-88
2022/01/15 04:15:26;;;;;;;16.45;8.73;;;4.40;97.20;;;;;;2078664;28;20029;-88
2022/01/15 04:16:28;;;;;;;15.60;8.57;;;4.40;97.20;;;;;;2086743;28;20138;-88
2022/01/15 04:17:29;;;;;;;16.15;8.73;;;4.40;97.20;;;;;;2088720;28;20116;-88
2022/01/15 04:18:36;;;;;;;15.32;8.00;;;4.40;97.20;;;;;;2080716;28;20256;-87
2022/01/15 04:19:39;;;;;;;16.05;8.73;;;4.40;97.20;;;;;;2064894;28;20030;-88
2022/01/15 04:20:40;;;;;;;14.88;8.68;;;4.40;97.20;;;;;;2053705;28;20521;-88
2022/01/15 04:21:41;;;;;;;14.32;8.43;;;4.40;97.20;;;;;;2065271;28;20109;-88
2022/01/15 04:22:41;;;;;;;14.52;8.00;;;4.50;97.20;;;;;;2069025;28;20034;-88
2022/01/15 04:23:42;;;;;;;14.57;7.82;;;4.40;97.20;;;;;;2070703;28;20077;-88
2022/01/15 04:24:43;;;;;;;16.73;8.60;;;4.50;97.20;;;;;;2078206;28;20041;-89
2022/01/15 04:25:43;;;;;;;15.27;7.68;;;4.40;97.10;;;;;;2088241;28;20099;-87
2022/01/15 04:26:44;;;;;;;14.57;8.02;;;4.40;97.20;;;;;;2074577;28;20484;-88
2022/01/15 04:27:46;;;;;;;14.27;8.00;;;4.40;97.20;;;;;;2079753;28;20049;-88
2022/01/15 04:28:46;;;;;;;14.40;8.00;;;4.40;97.20;;;;;;2081679;28;20033;-88
2022/01/15 04:29:47;;;;;;;14.00;7.55;;;4.40;97.20;;;;;;2089169;28;20059;-88
2022/01/15 04:30:48;;;;;;;13.75;7.60;;;4.40;97.20;;;;;;2089214;28;20037;-88
2022/01/15 04:31:51;;;;;;;15.00;6.97;;;4.40;97.20;;;;;;2072609;28;20481;-87
2022/01/15 04:32:51;;;;;;;16.88;8.70;;;4.40;97.20;;;;;;2073631;28;20042;-88
2022/01/15 04:33:52;;;;;;;15.70;8.15;;;4.40;97.20;;;;;;2085597;28;20029;-88
2022/01/15 04:34:53;;;;;;;15.88;8.32;;;4.40;97.20;;;;;;2081370;28;20132;-88
2022/01/15 04:35:53;;;;;;;14.75;8.35;;;4.40;97.10;;;;;;2081157;28;20407;-88
2022/01/15 04:37:12;;;;;;;15.23;8.20;;;4.30;97.10;;;;;;2081683;28;20132;-87
2022/01/15 04:38:13;;;;;;;16.60;7.90;;;4.30;97.20;;;;;;2076866;28;20049;-88
2022/01/15 04:39:14;;;;;;;13.65;7.30;;;4.30;97.20;;;;;;2075129;28;20037;-88
2022/01/15 04:40:16;;;;;;;15.65;7.68;;;4.30;97.20;;;;;;2081043;28;20530;-87
2022/01/15 04:41:16;;;;;;;16.38;7.78;;;4.30;97.20;;;;;;2072945;28;20038;-88
2022/01/15 04:42:20;;;;;;;15.68;7.80;;;4.40;97.30;;;;;;2077645;28;20464;-87
2022/01/15 04:43:21;;;;;;;15.45;7.38;;;4.40;97.30;;;;;;2085147;28;20052;-88
2022/01/15 04:44:22;;;;;;;13.35;7.55;;;4.30;97.20;;;;;;2079683;28;20060;-88
2022/01/15 04:45:22;;;;;;;15.75;8.25;;;4.40;97.20;;;;;;2080738;28;20041;-88
2022/01/15 04:46:23;;;;;;;17.67;8.85;;;4.40;97.20;;;;;;2074773;28;20061;-87
2022/01/15 04:47:24;;;;;;;16.30;7.90;;;4.40;97.20;;;;;;2074841;28;20041;-87
2022/01/15 04:48:25;;;;;;;14.85;8.30;;;4.30;97.20;;;;;;2078954;28;20077;-88
2022/01/15 04:49:26;;;;;;;16.33;9.05;;;4.30;97.20;;;;;;2063429;28;20042;-87
2022/01/15 04:50:26;;;;;;;16.65;8.50;;;4.30;97.20;;;;;;2072901;28;20045;-88
2022/01/15 04:51:27;;;;;;;20.00;9.88;;;4.30;97.30;;;;;;2087963;28;20033;-87
2022/01/15 04:52:28;;;;;;;18.20;9.13;;;4.30;97.30;;;;;;2081243;28;20507;-88
2022/01/15 04:53:28;;;;;;;21.35;10.68;;;4.30;97.20;;;;;;2081008;28;20080;-87
2022/01/15 04:54:29;;;;;;;21.77;11.13;;;4.30;97.20;;;;;;2075054;28;20049;-87
2022/01/15 04:55:29;;;;;;;20.05;10.70;;;4.30;97.20;;;;;;2097449;28;20048;-87
2022/01/15 04:56:30;;;;;;;18.75;10.95;;;4.30;97.20;;;;;;2089175;28;20480;-87
2022/01/15 04:57:31;;;;;;;20.42;10.93;;;4.30;97.20;;;;;;2080496;28;20077;-88
2022/01/15 04:58:32;;;;;;;21.48;11.75;;;4.30;97.50;;;;;;2095325;28;20074;-87
2022/01/15 04:59:32;;;;;;;21.73;10.85;;;4.30;97.20;;;;;;2084723;28;20041;-88
2022/01/15 05:00:35;;;;;;;18.83;11.13;;;4.20;97.30;;;;;;2088567;28;20033;-88
2022/01/15 05:01:35;;;;;;;18.80;10.77;;;4.30;97.30;;;;;;2089569;28;20045;-88
2022/01/15 05:02:36;;;;;;;21.17;10.73;;;4.30;97.30;;;;;;2083344;28;20400;-87
2022/01/15 05:03:37;;;;;;;19.85;10.90;;;4.30;97.30;;;;;;2060650;28;20039;-86
2022/01/15 05:04:37;;;;;;;21.50;11.10;;;4.30;97.30;;;;;;2071377;28;20038;-87
2022/01/15 05:05:38;;;;;;;19.38;10.30;;;4.30;97.30;;;;;;2088302;28;20041;-88
2022/01/15 05:06:39;;;;;;;19.00;10.88;;;4.30;97.30;;;;;;2087781;28;20037;-88
2022/01/15 05:07:40;;;;;;;18.88;9.98;;;4.30;97.30;;;;;;2083462;28;20034;-87
2022/01/15 05:08:44;;;;;;;24.80;12.07;;;4.30;97.30;;;;;;2076675;28;20034;-87
2022/01/15 05:09:44;;;;;;;21.83;11.68;;;4.30;97.30;;;;;;2074534;28;20050;-87
2022/01/15 05:10:47;;;;;;;20.77;11.60;;;4.30;97.20;;;;;;2078271;28;20851;-87
2022/01/15 05:11:58;;;;;;;24.15;11.90;;;4.30;97.20;;;;;;2081033;28;20061;-88
2022/01/15 05:13:01;;;;;;;25.50;12.20;;;4.30;97.20;;;;;;2091531;28;20043;-87
2022/01/15 05:14:02;;;;;;;23.00;12.00;;;4.30;97.20;;;;;;2091407;28;20140;-88
2022/01/15 05:15:03;;;;;;;21.88;11.75;;;4.30;97.20;;;;;;2066675;28;20493;-88
2022/01/15 05:16:04;;;;;;;19.73;11.18;;;4.30;97.20;;;;;;2075422;28;20408;-88
2022/01/15 05:17:04;;;;;;;20.20;11.13;;;4.30;97.30;;;;;;2098993;28;20037;-88
2022/01/15 05:18:05;;;;;;;22.00;11.07;;;4.30;97.30;;;;;;2075495;28;20116;-87
2022/01/15 05:19:06;;;;;;;20.35;10.55;;;4.30;97.30;;;;;;2074379;28;20088;-88
2022/01/15 05:20:08;;;;;;;19.88;11.23;;;4.30;97.30;;;;;;2082700;28;20091;-87
2022/01/15 05:21:09;;;;;;;18.88;10.65;;;4.30;97.30;;;;;;2087968;28;20048;-87
2022/01/15 05:22:10;;;;;;;21.70;10.75;;;4.30;97.30;;;;;;2090502;28;20083;-87
2022/01/15 05:23:11;;;;;;;18.40;10.18;;;4.30;97.30;;;;;;2082400;28;20045;-88
2022/01/15 05:24:12;;;;;;;21.45;11.07;;;4.30;97.30;;;;;;2082158;28;20033;-86
2022/01/15 05:25:13;;;;;;;20.73;10.63;;;4.30;97.30;;;;;;2083279;28;20634;-88
2022/01/15 05:26:14;;;;;;;20.52;10.93;;;4.30;97.30;;;;;;2074325;28;20048;-88
2022/01/15 05:27:14;;;;;;;21.83;11.35;;;4.30;97.30;;;;;;2090624;28;20033;-87
2022/01/15 05:28:15;;;;;;;21.48;10.45;;;4.40;97.30;;;;;;2090429;28;20567;-88
2022/01/15 05:29:15;;;;;;;19.88;10.20;;;4.30;97.30;;;;;;2086719;28;20036;-88
2022/01/15 05:30:16;;;;;;;19.17;10.25;;;4.40;97.60;;;;;;2091212;28;20128;-88
2022/01/15 05:31:16;;;;;;;18.23;9.98;;;4.30;97.30;;;;;;2074037;28;20097;-87
2022/01/15 05:32:19;;;;;;;18.60;10.20;;;4.30;97.30;;;;;;2073357;28;20080;-87
2022/01/15 05:33:19;;;;;;;18.60;9.75;;;4.30;97.30;;;;;;2090869;28;20036;-87
2022/01/15 05:34:20;;;;;;;19.20;10.27;;;4.30;97.30;;;;;;2091217;28;20399;-87
2022/01/15 05:35:25;;;;;;;21.13;10.38;;;4.40;97.30;;;;;;2072917;28;20058;-88
2022/01/15 05:36:26;;;;;;;19.13;10.52;;;4.30;97.30;;;;;;2074836;28;20100;-88
2022/01/15 05:37:27;;;;;;;22.15;11.00;;;4.40;97.30;;;;;;2073738;28;20346;-88
2022/01/15 05:38:28;;;;;;;21.25;10.95;;;4.40;97.30;;;;;;2082224;28;20044;-88